sensor_id;sensor_type;location;lat;lon;timestamp;P1;durP1;ratioP1;P2;durP2;ratioP2
24631;SDS011;59977;48.782;9.190;2023-04-25T00:00:47;2.15;;;1.30;;
24631;SDS011;59977;48.782;9.190;2023-04-25T00:03:13;6.63;;;1.85;;
24631;SDS011;59977;48.782;9.190;2023-04-25T00:05:39;2.72;;;1.33;;
24631;SDS011;59977;48.782;9.190;2023-04-25T00:08:05;4.45;;;1.35;;
24631;SDS011;59977;48.782;9.190;2023-04-25T00:10:31;1.60;;;1.20;;
24631;SDS011;59977;48.782;9.190;2023-04-25T00:12:57;3.30;;;1.70;;
24631;SDS011;59977;48.782;9.190;2023-04-25T00:15:23;4.05;;;1.33;;
24631;SDS011;59977;48.782;9.190;2023-04-25T00:17:49;4.25;;;1.63;;
24631;SDS011;59977;48.782;9.190;2023-04-25T00:20:17;5.60;;;1.70;;
24631;SDS011;59977;48.782;9.190;2023-04-25T00:22:44;4.25;;;1.75;;
24631;SDS011;59977;48.782;9.190;2023-04-25T00:25:10;10.82;;;2.35;;
24631;SDS011;59977;48.782;9.190;2023-04-25T00:27:36;8.70;;;2.28;;
24631;SDS011;59977;48.782;9.190;2023-04-25T00:30:04;19.92;;;2.72;;
24631;SDS011;59977;48.782;9.190;2023-04-25T00:32:30;12.57;;;2.17;;
24631;SDS011;59977;48.782;9.190;2023-04-25T00:34:56;6.05;;;1.83;;
24631;SDS011;59977;48.782;9.190;2023-04-25T00:37:23;8.77;;;1.40;;
24631;SDS011;59977;48.782;9.190;2023-04-25T00:39:48;5.22;;;1.40;;
24631;SDS011;59977;48.782;9.190;2023-04-25T00:42:15;3.75;;;1.85;;
24631;SDS011;59977;48.782;9.190;2023-04-25T00:44:41;2.58;;;1.63;;
24631;SDS011;59977;48.782;9.190;2023-04-25T00:47:08;2.55;;;1.42;;
24631;SDS011;59977;48.782;9.190;2023-04-25T00:49:34;8.68;;;1.80;;
24631;SDS011;59977;48.782;9.190;2023-04-25T00:52:00;4.00;;;1.48;;
24631;SDS011;59977;48.782;9.190;2023-04-25T00:54:26;6.93;;;1.90;;
24631;SDS011;59977;48.782;9.190;2023-04-25T00:56:52;4.85;;;1.80;;
24631;SDS011;59977;48.782;9.190;2023-04-25T00:59:18;2.92;;;1.52;;
24631;SDS011;59977;48.782;9.190;2023-04-25T01:01:45;8.98;;;2.60;;
24631;SDS011;59977;48.782;9.190;2023-04-25T01:04:11;15.90;;;2.15;;
24631;SDS011;59977;48.782;9.190;2023-04-25T01:06:38;10.95;;;2.10;;
24631;SDS011;59977;48.782;9.190;2023-04-25T01:09:04;4.60;;;1.80;;
24631;SDS011;59977;48.782;9.190;2023-04-25T01:11:30;11.52;;;1.83;;
24631;SDS011;59977;48.782;9.190;2023-04-25T01:13:56;4.30;;;2.00;;
24631;SDS011;59977;48.782;9.190;2023-04-25T01:16:22;8.27;;;1.90;;
24631;SDS011;59977;48.782;9.190;2023-04-25T01:18:49;4.65;;;1.73;;
24631;SDS011;59977;48.782;9.190;2023-04-25T01:21:16;5.22;;;1.80;;
24631;SDS011;59977;48.782;9.190;2023-04-25T01:23:42;3.78;;;1.70;;
24631;SDS011;59977;48.782;9.190;2023-04-25T01:26:09;5.05;;;1.70;;
24631;SDS011;59977;48.782;9.190;2023-04-25T01:28:35;4.25;;;1.90;;
24631;SDS011;59977;48.782;9.190;2023-04-25T01:31:02;5.40;;;1.85;;
24631;SDS011;59977;48.782;9.190;2023-04-25T01:33:28;4.45;;;1.98;;
24631;SDS011;59977;48.782;9.190;2023-04-25T01:35:54;10.38;;;1.63;;
24631;SDS011;59977;48.782;9.190;2023-04-25T01:38:20;5.88;;;1.55;;
24631;SDS011;59977;48.782;9.190;2023-04-25T01:40:46;6.03;;;2.42;;
24631;SDS011;59977;48.782;9.190;2023-04-25T01:43:15;5.65;;;1.80;;
24631;SDS011;59977;48.782;9.190;2023-04-25T01:45:42;3.30;;;1.88;;
24631;SDS011;59977;48.782;9.190;2023-04-25T01:48:08;5.60;;;1.80;;
24631;SDS011;59977;48.782;9.190;2023-04-25T01:50:36;9.15;;;1.85;;
24631;SDS011;59977;48.782;9.190;2023-04-25T01:53:03;10.93;;;2.40;;
24631;SDS011;59977;48.782;9.190;2023-04-25T01:55:29;5.47;;;2.20;;
24631;SDS011;59977;48.782;9.190;2023-04-25T01:57:55;5.93;;;2.20;;
24631;SDS011;59977;48.782;9.190;2023-04-25T02:00:21;4.55;;;2.17;;
24631;SDS011;59977;48.782;9.190;2023-04-25T02:02:47;5.57;;;2.40;;
24631;SDS011;59977;48.782;9.190;2023-04-25T02:05:15;5.97;;;2.25;;
24631;SDS011;59977;48.782;9.190;2023-04-25T02:07:41;5.82;;;2.13;;
24631;SDS011;59977;48.782;9.190;2023-04-25T02:21:10;10.95;;;2.25;;
24631;SDS011;59977;48.782;9.190;2023-04-25T02:23:36;18.15;;;2.92;;
24631;SDS011;59977;48.782;9.190;2023-04-25T02:26:02;6.95;;;2.30;;
24631;SDS011;59977;48.782;9.190;2023-04-25T02:28:28;8.27;;;2.20;;
24631;SDS011;59977;48.782;9.190;2023-04-25T02:30:55;9.27;;;2.17;;
24631;SDS011;59977;48.782;9.190;2023-04-25T02:33:21;9.63;;;2.28;;
24631;SDS011;59977;48.782;9.190;2023-04-25T02:35:47;3.60;;;2.20;;
24631;SDS011;59977;48.782;9.190;2023-04-25T02:38:13;13.63;;;2.92;;
24631;SDS011;59977;48.782;9.190;2023-04-25T02:40:39;5.70;;;1.90;;
24631;SDS011;59977;48.782;9.190;2023-04-25T02:43:06;5.22;;;1.80;;
24631;SDS011;59977;48.782;9.190;2023-04-25T02:45:32;4.55;;;1.90;;
24631;SDS011;59977;48.782;9.190;2023-04-25T02:47:58;6.35;;;2.20;;
24631;SDS011;59977;48.782;9.190;2023-04-25T02:50:24;6.95;;;1.80;;
24631;SDS011;59977;48.782;9.190;2023-04-25T02:52:50;5.10;;;1.95;;
24631;SDS011;59977;48.782;9.190;2023-04-25T02:55:16;7.13;;;1.90;;
24631;SDS011;59977;48.782;9.190;2023-04-25T02:57:42;4.68;;;2.00;;
24631;SDS011;59977;48.782;9.190;2023-04-25T03:00:08;7.68;;;1.90;;
24631;SDS011;59977;48.782;9.190;2023-04-25T03:02:36;7.80;;;2.47;;
24631;SDS011;59977;48.782;9.190;2023-04-25T03:05:02;4.40;;;2.00;;
24631;SDS011;59977;48.782;9.190;2023-04-25T03:07:28;4.28;;;1.95;;
24631;SDS011;59977;48.782;9.190;2023-04-25T03:09:54;2.95;;;1.70;;
24631;SDS011;59977;48.782;9.190;2023-04-25T03:12:21;7.50;;;1.60;;
24631;SDS011;59977;48.782;9.190;2023-04-25T03:14:47;5.90;;;2.05;;
24631;SDS011;59977;48.782;9.190;2023-04-25T03:17:13;7.00;;;1.95;;
24631;SDS011;59977;48.782;9.190;2023-04-25T03:19:39;7.88;;;1.70;;
24631;SDS011;59977;48.782;9.190;2023-04-25T03:22:08;10.57;;;2.55;;
24631;SDS011;59977;48.782;9.190;2023-04-25T03:24:34;8.35;;;2.10;;
24631;SDS011;59977;48.782;9.190;2023-04-25T03:27:01;4.90;;;2.05;;
24631;SDS011;59977;48.782;9.190;2023-04-25T03:29:27;6.68;;;1.70;;
24631;SDS011;59977;48.782;9.190;2023-04-25T03:31:53;7.20;;;1.77;;
24631;SDS011;59977;48.782;9.190;2023-04-25T03:34:19;4.22;;;1.67;;
24631;SDS011;59977;48.782;9.190;2023-04-25T03:36:46;2.70;;;1.52;;
24631;SDS011;59977;48.782;9.190;2023-04-25T03:39:12;11.75;;;2.10;;
24631;SDS011;59977;48.782;9.190;2023-04-25T03:41:38;2.70;;;1.60;;
24631;SDS011;59977;48.782;9.190;2023-04-25T03:44:04;3.88;;;1.90;;
24631;SDS011;59977;48.782;9.190;2023-04-25T03:46:30;4.80;;;1.52;;
24631;SDS011;59977;48.782;9.190;2023-04-25T03:48:56;4.28;;;1.65;;
24631;SDS011;59977;48.782;9.190;2023-04-25T03:51:22;5.35;;;1.75;;
24631;SDS011;59977;48.782;9.190;2023-04-25T03:53:49;6.75;;;2.03;;
24631;SDS011;59977;48.782;9.190;2023-04-25T03:56:15;3.90;;;1.60;;
24631;SDS011;59977;48.782;9.190;2023-04-25T03:58:41;4.55;;;2.03;;
24631;SDS011;59977;48.782;9.190;2023-04-25T04:01:07;3.33;;;1.63;;
24631;SDS011;59977;48.782;9.190;2023-04-25T04:03:33;3.92;;;1.60;;
24631;SDS011;59977;48.782;9.190;2023-04-25T04:06:03;8.00;;;2.10;;
24631;SDS011;59977;48.782;9.190;2023-04-25T04:08:30;6.40;;;1.98;;
24631;SDS011;59977;48.782;9.190;2023-04-25T04:10:57;9.88;;;1.85;;
24631;SDS011;59977;48.782;9.190;2023-04-25T04:13:23;6.10;;;1.88;;
24631;SDS011;59977;48.782;9.190;2023-04-25T04:15:49;7.47;;;2.30;;
24631;SDS011;59977;48.782;9.190;2023-04-25T04:18:15;2.65;;;1.80;;
24631;SDS011;59977;48.782;9.190;2023-04-25T04:20:41;6.82;;;1.92;;
24631;SDS011;59977;48.782;9.190;2023-04-25T04:23:07;2.88;;;1.80;;
24631;SDS011;59977;48.782;9.190;2023-04-25T04:25:33;7.07;;;2.20;;
24631;SDS011;59977;48.782;9.190;2023-04-25T04:27:59;7.20;;;2.40;;
24631;SDS011;59977;48.782;9.190;2023-04-25T04:30:25;5.60;;;2.20;;
24631;SDS011;59977;48.782;9.190;2023-04-25T04:32:54;3.63;;;2.10;;
24631;SDS011;59977;48.782;9.190;2023-04-25T04:35:20;7.68;;;2.20;;
24631;SDS011;59977;48.782;9.190;2023-04-25T04:37:46;6.65;;;2.33;;
24631;SDS011;59977;48.782;9.190;2023-04-25T04:40:12;8.00;;;2.60;;
24631;SDS011;59977;48.782;9.190;2023-04-25T04:42:40;9.27;;;2.30;;
24631;SDS011;59977;48.782;9.190;2023-04-25T04:45:06;7.10;;;2.55;;
24631;SDS011;59977;48.782;9.190;2023-04-25T04:47:33;5.03;;;2.00;;
24631;SDS011;59977;48.782;9.190;2023-04-25T04:50:02;3.60;;;2.20;;
24631;SDS011;59977;48.782;9.190;2023-04-25T04:52:29;11.88;;;2.63;;
24631;SDS011;59977;48.782;9.190;2023-04-25T04:54:55;5.72;;;2.47;;
24631;SDS011;59977;48.782;9.190;2023-04-25T04:57:22;5.22;;;2.22;;
24631;SDS011;59977;48.782;9.190;2023-04-25T04:59:48;5.47;;;2.25;;
24631;SDS011;59977;48.782;9.190;2023-04-25T05:02:14;11.18;;;2.65;;
24631;SDS011;59977;48.782;9.190;2023-04-25T05:04:40;6.90;;;2.38;;
24631;SDS011;59977;48.782;9.190;2023-04-25T05:07:06;13.55;;;2.55;;
24631;SDS011;59977;48.782;9.190;2023-04-25T05:09:32;6.38;;;2.00;;
24631;SDS011;59977;48.782;9.190;2023-04-25T05:11:58;10.95;;;2.50;;
24631;SDS011;59977;48.782;9.190;2023-04-25T05:14:25;13.82;;;2.80;;
24631;SDS011;59977;48.782;9.190;2023-04-25T05:16:51;11.52;;;2.75;;
24631;SDS011;59977;48.782;9.190;2023-04-25T05:19:17;8.27;;;2.33;;
24631;SDS011;59977;48.782;9.190;2023-04-25T05:21:43;10.15;;;2.72;;
24631;SDS011;59977;48.782;9.190;2023-04-25T05:24:09;7.15;;;2.50;;
24631;SDS011;59977;48.782;9.190;2023-04-25T05:26:35;6.97;;;2.45;;
24631;SDS011;59977;48.782;9.190;2023-04-25T05:29:00;8.88;;;2.63;;
24631;SDS011;59977;48.782;9.190;2023-04-25T05:31:26;8.90;;;2.67;;
24631;SDS011;59977;48.782;9.190;2023-04-25T05:33:52;7.50;;;2.40;;
24631;SDS011;59977;48.782;9.190;2023-04-25T05:36:18;4.75;;;2.20;;
24631;SDS011;59977;48.782;9.190;2023-04-25T05:38:44;5.10;;;2.33;;
24631;SDS011;59977;48.782;9.190;2023-04-25T05:41:10;10.18;;;3.10;;
24631;SDS011;59977;48.782;9.190;2023-04-25T05:43:36;4.80;;;2.60;;
24631;SDS011;59977;48.782;9.190;2023-04-25T05:46:01;4.15;;;2.20;;
24631;SDS011;59977;48.782;9.190;2023-04-25T05:48:27;8.55;;;2.92;;
24631;SDS011;59977;48.782;9.190;2023-04-25T05:50:53;4.68;;;2.17;;
24631;SDS011;59977;48.782;9.190;2023-04-25T05:53:19;6.18;;;2.65;;
24631;SDS011;59977;48.782;9.190;2023-04-25T05:55:46;9.68;;;2.72;;
24631;SDS011;59977;48.782;9.190;2023-04-25T05:58:11;8.43;;;2.47;;
24631;SDS011;59977;48.782;9.190;2023-04-25T06:00:37;12.23;;;2.38;;
24631;SDS011;59977;48.782;9.190;2023-04-25T06:03:03;6.25;;;2.70;;
24631;SDS011;59977;48.782;9.190;2023-04-25T06:05:29;4.93;;;1.80;;
24631;SDS011;59977;48.782;9.190;2023-04-25T06:07:55;3.20;;;1.83;;
24631;SDS011;59977;48.782;9.190;2023-04-25T06:10:21;3.38;;;1.92;;
24631;SDS011;59977;48.782;9.190;2023-04-25T06:12:47;4.30;;;2.20;;
24631;SDS011;59977;48.782;9.190;2023-04-25T06:15:13;16.70;;;2.50;;
24631;SDS011;59977;48.782;9.190;2023-04-25T06:17:40;3.33;;;1.75;;
24631;SDS011;59977;48.782;9.190;2023-04-25T06:20:06;3.90;;;1.85;;
24631;SDS011;59977;48.782;9.190;2023-04-25T06:22:33;4.25;;;2.33;;
24631;SDS011;59977;48.782;9.190;2023-04-25T06:24:59;2.78;;;2.10;;
24631;SDS011;59977;48.782;9.190;2023-04-25T06:27:25;3.03;;;2.05;;
24631;SDS011;59977;48.782;9.190;2023-04-25T06:29:51;4.53;;;2.03;;
24631;SDS011;59977;48.782;9.190;2023-04-25T06:32:16;8.55;;;1.95;;
24631;SDS011;59977;48.782;9.190;2023-04-25T06:34:43;3.92;;;2.20;;
24631;SDS011;59977;48.782;9.190;2023-04-25T06:37:09;6.43;;;2.40;;
24631;SDS011;59977;48.782;9.190;2023-04-25T06:39:35;4.68;;;2.50;;
24631;SDS011;59977;48.782;9.190;2023-04-25T06:42:01;2.85;;;1.85;;
24631;SDS011;59977;48.782;9.190;2023-04-25T06:44:26;3.00;;;1.80;;
24631;SDS011;59977;48.782;9.190;2023-04-25T06:46:54;4.05;;;1.67;;
24631;SDS011;59977;48.782;9.190;2023-04-25T06:49:20;8.35;;;2.20;;
24631;SDS011;59977;48.782;9.190;2023-04-25T06:51:46;9.85;;;2.45;;
24631;SDS011;59977;48.782;9.190;2023-04-25T06:54:12;8.20;;;2.25;;
24631;SDS011;59977;48.782;9.190;2023-04-25T06:56:37;5.80;;;2.33;;
24631;SDS011;59977;48.782;9.190;2023-04-25T06:59:03;3.35;;;1.92;;
24631;SDS011;59977;48.782;9.190;2023-04-25T07:01:29;3.55;;;2.00;;
24631;SDS011;59977;48.782;9.190;2023-04-25T07:03:55;9.00;;;2.92;;
24631;SDS011;59977;48.782;9.190;2023-04-25T07:06:21;6.90;;;2.30;;
24631;SDS011;59977;48.782;9.190;2023-04-25T07:08:47;4.25;;;2.00;;
24631;SDS011;59977;48.782;9.190;2023-04-25T07:11:13;3.15;;;1.98;;
24631;SDS011;59977;48.782;9.190;2023-04-25T07:13:39;4.85;;;2.25;;
24631;SDS011;59977;48.782;9.190;2023-04-25T07:16:05;6.53;;;2.92;;
24631;SDS011;59977;48.782;9.190;2023-04-25T07:18:31;4.43;;;2.63;;
24631;SDS011;59977;48.782;9.190;2023-04-25T07:20:57;4.97;;;3.33;;
24631;SDS011;59977;48.782;9.190;2023-04-25T07:23:22;5.72;;;3.15;;
24631;SDS011;59977;48.782;9.190;2023-04-25T07:25:48;8.90;;;4.07;;
24631;SDS011;59977;48.782;9.190;2023-04-25T07:28:14;7.50;;;3.60;;
24631;SDS011;59977;48.782;9.190;2023-04-25T07:30:40;9.13;;;3.58;;
24631;SDS011;59977;48.782;9.190;2023-04-25T07:33:05;8.48;;;3.13;;
24631;SDS011;59977;48.782;9.190;2023-04-25T07:35:31;5.22;;;3.33;;
24631;SDS011;59977;48.782;9.190;2023-04-25T07:37:57;4.43;;;3.00;;
24631;SDS011;59977;48.782;9.190;2023-04-25T07:40:24;9.10;;;3.70;;
24631;SDS011;59977;48.782;9.190;2023-04-25T07:42:50;9.13;;;3.50;;
24631;SDS011;59977;48.782;9.190;2023-04-25T07:45:15;5.65;;;3.85;;
24631;SDS011;59977;48.782;9.190;2023-04-25T07:47:41;5.70;;;3.08;;
24631;SDS011;59977;48.782;9.190;2023-04-25T07:50:07;6.90;;;3.47;;
24631;SDS011;59977;48.782;9.190;2023-04-25T07:52:33;5.53;;;3.35;;
24631;SDS011;59977;48.782;9.190;2023-04-25T07:54:59;5.75;;;3.13;;
24631;SDS011;59977;48.782;9.190;2023-04-25T07:57:25;5.93;;;3.40;;
24631;SDS011;59977;48.782;9.190;2023-04-25T07:59:51;4.60;;;2.67;;
24631;SDS011;59977;48.782;9.190;2023-04-25T08:02:17;3.72;;;2.80;;
24631;SDS011;59977;48.782;9.190;2023-04-25T08:04:43;5.55;;;2.75;;
24631;SDS011;59977;48.782;9.190;2023-04-25T08:07:09;5.88;;;3.25;;
24631;SDS011;59977;48.782;9.190;2023-04-25T08:09:35;3.03;;;2.53;;
24631;SDS011;59977;48.782;9.190;2023-04-25T08:12:01;8.95;;;3.22;;
24631;SDS011;59977;48.782;9.190;2023-04-25T08:14:28;4.47;;;3.05;;
24631;SDS011;59977;48.782;9.190;2023-04-25T08:16:56;4.80;;;3.20;;
24631;SDS011;59977;48.782;9.190;2023-04-25T08:19:22;10.85;;;4.32;;
24631;SDS011;59977;48.782;9.190;2023-04-25T08:21:48;7.47;;;3.83;;
24631;SDS011;59977;48.782;9.190;2023-04-25T08:24:15;4.95;;;3.13;;
24631;SDS011;59977;48.782;9.190;2023-04-25T08:26:41;6.32;;;3.97;;
24631;SDS011;59977;48.782;9.190;2023-04-25T08:29:07;8.32;;;3.72;;
24631;SDS011;59977;48.782;9.190;2023-04-25T08:31:33;6.63;;;3.38;;
24631;SDS011;59977;48.782;9.190;2023-04-25T08:33:59;13.27;;;4.50;;
24631;SDS011;59977;48.782;9.190;2023-04-25T08:36:25;6.18;;;3.60;;
24631;SDS011;59977;48.782;9.190;2023-04-25T08:38:53;5.55;;;3.13;;
24631;SDS011;59977;48.782;9.190;2023-04-25T08:41:19;7.40;;;3.58;;
24631;SDS011;59977;48.782;9.190;2023-04-25T08:43:46;6.10;;;3.40;;
24631;SDS011;59977;48.782;9.190;2023-04-25T08:46:13;5.32;;;3.10;;
24631;SDS011;59977;48.782;9.190;2023-04-25T08:48:43;6.55;;;3.38;;
24631;SDS011;59977;48.782;9.190;2023-04-25T08:51:10;5.22;;;3.17;;
24631;SDS011;59977;48.782;9.190;2023-04-25T08:53:43;5.95;;;2.83;;
24631;SDS011;59977;48.782;9.190;2023-04-25T08:56:11;5.68;;;2.90;;
24631;SDS011;59977;48.782;9.190;2023-04-25T08:58:41;4.78;;;2.63;;
24631;SDS011;59977;48.782;9.190;2023-04-25T09:01:07;5.38;;;3.05;;
24631;SDS011;59977;48.782;9.190;2023-04-25T09:03:33;9.93;;;3.90;;
24631;SDS011;59977;48.782;9.190;2023-04-25T09:06:00;7.95;;;3.55;;
24631;SDS011;59977;48.782;9.190;2023-04-25T09:08:26;9.13;;;3.50;;
24631;SDS011;59977;48.782;9.190;2023-04-25T09:10:51;7.90;;;3.40;;
24631;SDS011;59977;48.782;9.190;2023-04-25T09:13:23;7.22;;;3.20;;
24631;SDS011;59977;48.782;9.190;2023-04-25T09:15:54;9.23;;;4.50;;
24631;SDS011;59977;48.782;9.190;2023-04-25T09:18:31;6.68;;;3.50;;
24631;SDS011;59977;48.782;9.190;2023-04-25T09:21:04;7.95;;;3.30;;
24631;SDS011;59977;48.782;9.190;2023-04-25T09:23:38;6.07;;;3.50;;
24631;SDS011;59977;48.782;9.190;2023-04-25T09:26:15;8.65;;;3.63;;
24631;SDS011;59977;48.782;9.190;2023-04-25T09:28:42;19.17;;;4.72;;
24631;SDS011;59977;48.782;9.190;2023-04-25T09:31:09;9.23;;;3.95;;
24631;SDS011;59977;48.782;9.190;2023-04-25T09:33:40;10.57;;;3.90;;
24631;SDS011;59977;48.782;9.190;2023-04-25T09:36:07;15.80;;;4.00;;
24631;SDS011;59977;48.782;9.190;2023-04-25T09:38:43;17.50;;;4.22;;
24631;SDS011;59977;48.782;9.190;2023-04-25T09:41:10;14.90;;;3.90;;
24631;SDS011;59977;48.782;9.190;2023-04-25T09:43:36;14.00;;;4.13;;
24631;SDS011;59977;48.782;9.190;2023-04-25T09:46:02;12.05;;;3.70;;
24631;SDS011;59977;48.782;9.190;2023-04-25T09:48:36;8.75;;;3.47;;
24631;SDS011;59977;48.782;9.190;2023-04-25T09:53:39;7.88;;;3.30;;
24631;SDS011;59977;48.782;9.190;2023-04-25T09:56:09;9.20;;;3.20;;
24631;SDS011;59977;48.782;9.190;2023-04-25T09:58:36;7.47;;;2.88;;
24631;SDS011;59977;48.782;9.190;2023-04-25T10:01:05;11.20;;;3.75;;
24631;SDS011;59977;48.782;9.190;2023-04-25T10:03:33;3.88;;;2.97;;
24631;SDS011;59977;48.782;9.190;2023-04-25T10:06:01;7.38;;;3.20;;
24631;SDS011;59977;48.782;9.190;2023-04-25T10:08:32;3.17;;;2.30;;
24631;SDS011;59977;48.782;9.190;2023-04-25T10:11:02;3.90;;;1.85;;
24631;SDS011;59977;48.782;9.190;2023-04-25T10:13:32;2.50;;;1.98;;
24631;SDS011;59977;48.782;9.190;2023-04-25T10:16:00;1.40;;;1.30;;
24631;SDS011;59977;48.782;9.190;2023-04-25T10:18:29;2.85;;;1.80;;
24631;SDS011;59977;48.782;9.190;2023-04-25T10:20:56;3.15;;;1.52;;
24631;SDS011;59977;48.782;9.190;2023-04-25T10:23:26;3.13;;;1.90;;
24631;SDS011;59977;48.782;9.190;2023-04-25T10:25:53;3.20;;;1.88;;
24631;SDS011;59977;48.782;9.190;2023-04-25T10:28:19;3.60;;;2.13;;
24631;SDS011;59977;48.782;9.190;2023-04-25T10:33:35;4.93;;;2.70;;
24631;SDS011;59977;48.782;9.190;2023-04-25T10:36:20;12.27;;;2.33;;
24631;SDS011;59977;48.782;9.190;2023-04-25T10:38:48;7.47;;;2.92;;
24631;SDS011;59977;48.782;9.190;2023-04-25T10:41:21;3.88;;;1.50;;
24631;SDS011;59977;48.782;9.190;2023-04-25T10:43:48;3.55;;;2.33;;
24631;SDS011;59977;48.782;9.190;2023-04-25T10:46:24;15.85;;;2.13;;
24631;SDS011;59977;48.782;9.190;2023-04-25T10:49:00;2.63;;;1.30;;
24631;SDS011;59977;48.782;9.190;2023-04-25T10:51:31;4.00;;;2.30;;
24631;SDS011;59977;48.782;9.190;2023-04-25T10:54:02;6.60;;;3.53;;
24631;SDS011;59977;48.782;9.190;2023-04-25T10:56:29;5.28;;;2.65;;
24631;SDS011;59977;48.782;9.190;2023-04-25T11:09:48;7.05;;;3.10;;
24631;SDS011;59977;48.782;9.190;2023-04-25T11:12:15;4.32;;;2.60;;
24631;SDS011;59977;48.782;9.190;2023-04-25T11:14:42;2.75;;;1.92;;
24631;SDS011;59977;48.782;9.190;2023-04-25T11:17:08;3.05;;;2.38;;
24631;SDS011;59977;48.782;9.190;2023-04-25T11:19:35;4.63;;;2.50;;
24631;SDS011;59977;48.782;9.190;2023-04-25T11:22:02;3.90;;;2.45;;
24631;SDS011;59977;48.782;9.190;2023-04-25T11:24:34;3.63;;;2.72;;
24631;SDS011;59977;48.782;9.190;2023-04-25T11:27:02;6.78;;;3.00;;
24631;SDS011;59977;48.782;9.190;2023-04-25T11:29:32;3.67;;;2.55;;
24631;SDS011;59977;48.782;9.190;2023-04-25T11:31:59;2.63;;;1.90;;
24631;SDS011;59977;48.782;9.190;2023-04-25T11:34:29;4.85;;;1.98;;
24631;SDS011;59977;48.782;9.190;2023-04-25T11:36:56;3.28;;;1.95;;
24631;SDS011;59977;48.782;9.190;2023-04-25T11:39:25;2.67;;;1.60;;
24631;SDS011;59977;48.782;9.190;2023-04-25T11:41:52;2.45;;;1.70;;
24631;SDS011;59977;48.782;9.190;2023-04-25T11:44:18;3.38;;;1.95;;
24631;SDS011;59977;48.782;9.190;2023-04-25T11:46:45;4.10;;;1.98;;
24631;SDS011;59977;48.782;9.190;2023-04-25T11:49:11;6.35;;;2.40;;
24631;SDS011;59977;48.782;9.190;2023-04-25T11:51:39;5.22;;;2.28;;
24631;SDS011;59977;48.782;9.190;2023-04-25T11:54:09;9.60;;;2.33;;
24631;SDS011;59977;48.782;9.190;2023-04-25T11:56:35;4.43;;;2.33;;
24631;SDS011;59977;48.782;9.190;2023-04-25T11:59:02;4.68;;;2.25;;
24631;SDS011;59977;48.782;9.190;2023-04-25T12:01:30;5.68;;;2.65;;
24631;SDS011;59977;48.782;9.190;2023-04-25T12:03:57;7.50;;;2.63;;
24631;SDS011;59977;48.782;9.190;2023-04-25T12:06:27;12.52;;;2.70;;
24631;SDS011;59977;48.782;9.190;2023-04-25T12:09:03;10.52;;;2.95;;
24631;SDS011;59977;48.782;9.190;2023-04-25T12:11:32;6.25;;;2.70;;
24631;SDS011;59977;48.782;9.190;2023-04-25T12:14:03;4.10;;;2.83;;
24631;SDS011;59977;48.782;9.190;2023-04-25T12:16:44;7.25;;;2.92;;
24631;SDS011;59977;48.782;9.190;2023-04-25T12:19:15;6.07;;;2.95;;
24631;SDS011;59977;48.782;9.190;2023-04-25T12:21:42;4.82;;;3.05;;
24631;SDS011;59977;48.782;9.190;2023-04-25T12:24:15;7.57;;;3.22;;
24631;SDS011;59977;48.782;9.190;2023-04-25T12:29:20;7.03;;;3.47;;
24631;SDS011;59977;48.782;9.190;2023-04-25T12:31:47;6.05;;;3.40;;
24631;SDS011;59977;48.782;9.190;2023-04-25T12:34:13;5.90;;;4.20;;
24631;SDS011;59977;48.782;9.190;2023-04-25T12:36:39;4.93;;;3.40;;
24631;SDS011;59977;48.782;9.190;2023-04-25T12:39:05;6.70;;;4.05;;
24631;SDS011;59977;48.782;9.190;2023-04-25T12:41:31;13.13;;;4.43;;
24631;SDS011;59977;48.782;9.190;2023-04-25T12:43:57;6.45;;;3.90;;
24631;SDS011;59977;48.782;9.190;2023-04-25T12:46:23;7.47;;;4.10;;
24631;SDS011;59977;48.782;9.190;2023-04-25T12:48:49;9.02;;;3.25;;
24631;SDS011;59977;48.782;9.190;2023-04-25T12:51:15;13.02;;;4.03;;
24631;SDS011;59977;48.782;9.190;2023-04-25T12:53:41;6.05;;;3.92;;
24631;SDS011;59977;48.782;9.190;2023-04-25T12:56:08;6.93;;;3.97;;
24631;SDS011;59977;48.782;9.190;2023-04-25T12:58:33;6.45;;;3.70;;
24631;SDS011;59977;48.782;9.190;2023-04-25T13:00:59;10.93;;;3.72;;
24631;SDS011;59977;48.782;9.190;2023-04-25T13:03:25;9.95;;;3.85;;
24631;SDS011;59977;48.782;9.190;2023-04-25T13:05:51;7.10;;;3.97;;
24631;SDS011;59977;48.782;9.190;2023-04-25T13:08:20;8.88;;;3.78;;
24631;SDS011;59977;48.782;9.190;2023-04-25T13:10:47;9.57;;;4.38;;
24631;SDS011;59977;48.782;9.190;2023-04-25T13:13:13;11.20;;;4.57;;
24631;SDS011;59977;48.782;9.190;2023-04-25T13:15:38;7.47;;;4.20;;
24631;SDS011;59977;48.782;9.190;2023-04-25T13:18:04;7.53;;;4.15;;
24631;SDS011;59977;48.782;9.190;2023-04-25T13:20:30;12.32;;;4.85;;
24631;SDS011;59977;48.782;9.190;2023-04-25T13:22:57;8.57;;;4.10;;
24631;SDS011;59977;48.782;9.190;2023-04-25T13:25:23;8.65;;;4.18;;
24631;SDS011;59977;48.782;9.190;2023-04-25T13:27:48;6.90;;;4.28;;
24631;SDS011;59977;48.782;9.190;2023-04-25T13:30:15;7.60;;;4.10;;
24631;SDS011;59977;48.782;9.190;2023-04-25T13:32:41;10.05;;;5.15;;
24631;SDS011;59977;48.782;9.190;2023-04-25T13:35:07;8.27;;;4.35;;
24631;SDS011;59977;48.782;9.190;2023-04-25T13:37:34;10.25;;;4.35;;
24631;SDS011;59977;48.782;9.190;2023-04-25T13:40:00;11.77;;;4.45;;
24631;SDS011;59977;48.782;9.190;2023-04-25T13:42:29;6.13;;;4.45;;
24631;SDS011;59977;48.782;9.190;2023-04-25T13:44:58;9.57;;;5.05;;
24631;SDS011;59977;48.782;9.190;2023-04-25T13:47:23;6.65;;;4.13;;
24631;SDS011;59977;48.782;9.190;2023-04-25T13:49:50;10.43;;;5.20;;
24631;SDS011;59977;48.782;9.190;2023-04-25T13:52:16;16.02;;;6.15;;
24631;SDS011;59977;48.782;9.190;2023-04-25T13:54:42;12.38;;;6.70;;
24631;SDS011;59977;48.782;9.190;2023-04-25T13:57:08;10.82;;;6.32;;
24631;SDS011;59977;48.782;9.190;2023-04-25T13:59:35;12.70;;;6.20;;
24631;SDS011;59977;48.782;9.190;2023-04-25T14:02:01;9.85;;;6.13;;
24631;SDS011;59977;48.782;9.190;2023-04-25T14:04:27;11.00;;;6.13;;
24631;SDS011;59977;48.782;9.190;2023-04-25T14:06:53;12.13;;;5.60;;
24631;SDS011;59977;48.782;9.190;2023-04-25T14:09:18;12.85;;;6.13;;
24631;SDS011;59977;48.782;9.190;2023-04-25T14:11:45;8.07;;;5.82;;
24631;SDS011;59977;48.782;9.190;2023-04-25T14:14:11;12.43;;;5.97;;
24631;SDS011;59977;48.782;9.190;2023-04-25T14:16:38;10.32;;;5.57;;
24631;SDS011;59977;48.782;9.190;2023-04-25T14:19:03;11.02;;;5.40;;
24631;SDS011;59977;48.782;9.190;2023-04-25T14:21:29;8.35;;;4.57;;
24631;SDS011;59977;48.782;9.190;2023-04-25T14:23:57;7.93;;;4.40;;
24631;SDS011;59977;48.782;9.190;2023-04-25T14:26:22;6.07;;;3.88;;
24631;SDS011;59977;48.782;9.190;2023-04-25T14:28:48;5.82;;;3.80;;
24631;SDS011;59977;48.782;9.190;2023-04-25T14:31:15;6.25;;;3.45;;
24631;SDS011;59977;48.782;9.190;2023-04-25T14:33:40;5.82;;;3.63;;
24631;SDS011;59977;48.782;9.190;2023-04-25T14:36:07;7.97;;;3.60;;
24631;SDS011;59977;48.782;9.190;2023-04-25T14:38:33;5.32;;;3.20;;
24631;SDS011;59977;48.782;9.190;2023-04-25T14:40:58;7.20;;;3.20;;
24631;SDS011;59977;48.782;9.190;2023-04-25T14:43:24;3.97;;;3.10;;
24631;SDS011;59977;48.782;9.190;2023-04-25T14:45:50;6.30;;;2.85;;
24631;SDS011;59977;48.782;9.190;2023-04-25T14:48:15;4.57;;;3.03;;
24631;SDS011;59977;48.782;9.190;2023-04-25T14:50:44;5.20;;;3.33;;
24631;SDS011;59977;48.782;9.190;2023-04-25T14:53:10;5.75;;;3.08;;
24631;SDS011;59977;48.782;9.190;2023-04-25T14:55:36;5.45;;;3.22;;
24631;SDS011;59977;48.782;9.190;2023-04-25T14:58:01;9.13;;;3.10;;
24631;SDS011;59977;48.782;9.190;2023-04-25T15:00:27;4.78;;;3.08;;
24631;SDS011;59977;48.782;9.190;2023-04-25T15:02:52;8.30;;;3.08;;
24631;SDS011;59977;48.782;9.190;2023-04-25T15:05:18;5.13;;;3.35;;
24631;SDS011;59977;48.782;9.190;2023-04-25T15:07:44;7.20;;;4.22;;
24631;SDS011;59977;48.782;9.190;2023-04-25T15:10:10;7.20;;;3.58;;
24631;SDS011;59977;48.782;9.190;2023-04-25T15:12:41;8.05;;;3.78;;